Pocomoke City, Maryland
Current Conditions -  °F | °C
As of 8:54 AM on Friday 28 Nov 2014 (Local Time) from KWAL Reporting Station
Clear Clear  
Wind Chill: 27°   Ceiling: Unl
Heat Index: 36°   Visibility: 10mi
Dew Point: 25°   Wind: 14mph
Humidity: 64%   Direction: 340°NNW
Pressure: 30.28"   Gusts: 20mph
Location:  38.08°N, 75.57°W
Report Text: KWAL 281354Z AUTO 34012G17KT 10SM CLR 02/M04 A3028 RMK AO2 SLP250 T00221039
Loading
Personal Weather Stations






























Interactive Weather Map New forecast layout! Learn more

10-Day Weather Forecast

Advertisements
Track Severe Weather on mobile